Etusivu
METAR-TAF:

METAR-TAF

Lentoasemat :

Torino, Italia

Leveyspiiri: 45-13N, Pituuspiiri: 007-39E, korkeus merenpinnasta: 301 m

Tämänhetkinen sää

Tämä raportti tehtiin 15 minuuttia sitten, kello 03.20 UTC
Tuuli 2 kn koillisesta
Lämpötila 1°C
Kosteus 80%
Ilmanpaine 1016 hPa
Näkyvyys 10 km tai enemmän
Hajonneita pilviä 7000 ft:n korkeudessa

METAR: LIMF 130320Z 05002KT 9999 BKN070 01/M02 Q1016

Aika: 04:35 (03:35 UTC)

Sääennuste

Tämä raportti tehtiin 4 tuntia ja 35 minuuttia sitten, kello 23.00 UTC
Ennuste voimassa 13. päivästä klo 00 UTC - 13. päivään klo 24 UTC
Tuuli 5 kn luoteesta
Näkyvyys 10 km tai enemmän
Hajonneita pilviä 5000 ft:n korkeudessa

TAF: LIMF 122300Z 1300/1324 31005KT 9999 BKN050

Säähavainnot ja -ennusteet yli 4000 lentoasemalta (METAR- ja TAF-raportit).

Käytössä olevat sääasemat on merkitty karttaan keltaisilla ja punaisilla pisteillä.

Aseta hiiri pisteen päälle nähdäksesi sääaseman nimen.

Klikkaa sitten nähdäksesi säähavainnot ja -ennusteet.

Kartan vaihtaminen: klikkaa mustalla rastilla varustettuja vihreitä pisteitä, niin voit zoomata sisään; viivalla varustettua vihreää pistettä, niin voit zoomata ulos tai vihreitä nuolia, niin pääset viereisille kartoille.


METAR-TAF: